Página principal
METAR-TAF:

METAR-TAF

Aeroportos :

Bahrein, Bahrein

Aeroporto Internacional do Bahrain

latitude: 26-16N, longitude: 050-39E, altura: 2 m

Observação actual do tempo

O boletim foi feito há 28 minutos, às 14:00 UTC
Vento 7 kt de norte
Temperatura 35°C
Humidade 60%
Pressão 1007 hPa
Visibilidade 10 km ou mais
sem nuvens abaixo de 1500 metros e sem cumulonimbus

METAR: OBBI 231400Z 01007KT CAVOK 35/26 Q1007 NOSIG

Hora: 17:28 (14:28 UTC)

Previsão

O boletim foi feito há 3 horas e 28 minutos, às 11:00 UTC
Previsão válida de 23 às 12 UTC a 24 às 18 UTC
Vento 10 kt de norte
Visibilidade 10 km ou mais
sem nuvens abaixo de 1500 metros e sem cumulonimbus
Tornando-se
de 23 às 20 UTC a 23 às 22 UTC
Vento 5 kt com direcção variável
Tornando-se
de 24 às 09 UTC a 24 às 11 UTC
Vento 10 kt de nor-nordeste

TAF: OBBI 231100Z 2312/2418 01010KT CAVOK BECMG 2320/2322 VRB05KT BECMG 2409/2411 03010KT

Observações e previsões do tempo de mais de 4000 aeroportos (mensagens METAR e TAF).

As estações disponíveis são os pontos amarelos e vermelhos sobre o mapa.

Mova o rato sobre o mapa para ver o nome da estação.

Depois clique no ponto para visualizar as observações e previsões meteorológicas.

Para alterar o mapa : clique nos botões verdes com uma cruz preta para aumentar o zoom; no botão verde com uma pitada de zoom; ou nas setas verdes para mapas adjacentes.


METAR-TAF: